createdAt,value
2022-08-22T00:01:41.766Z,6.13
2022-08-22T00:02:52.803Z,4.47
2022-08-22T00:06:53.524Z,6.23
2022-08-22T00:12:14.983Z,5.47
2022-08-22T00:17:32.232Z,5.07
2022-08-22T00:22:51.381Z,5.13
2022-08-22T00:28:03.873Z,5.83
2022-08-22T00:33:21.073Z,4.43
2022-08-22T00:38:39.113Z,5.03
2022-08-22T00:44:00.678Z,4.40
2022-08-22T00:49:35.177Z,6.40
2022-08-22T00:55:08.410Z,6.07
2022-08-22T01:00:15.420Z,6.83
2022-08-22T01:05:42.140Z,7.22
2022-08-22T01:11:31.956Z,6.95
2022-08-22T01:16:59.322Z,7.30
2022-08-22T01:22:34.628Z,6.95
2022-08-22T01:28:08.280Z,7.80
2022-08-22T01:33:33.690Z,6.73
2022-08-22T01:38:41.976Z,7.60
2022-08-22T01:44:16.268Z,7.53
2022-08-22T01:49:33.793Z,7.27
2022-08-22T01:54:36.338Z,8.35
2022-08-22T01:59:53.033Z,8.83
2022-08-22T02:05:19.709Z,7.83
2022-08-22T02:10:46.151Z,7.80
2022-08-22T02:16:01.401Z,9.15
2022-08-22T02:21:10.842Z,8.50
2022-08-22T02:26:22.313Z,9.02
2022-08-22T02:31:42.509Z,8.50
2022-08-22T02:36:50.876Z,8.20
2022-08-22T02:41:58.434Z,8.95
2022-08-22T02:47:33.588Z,8.57
2022-08-22T02:52:52.453Z,9.23
2022-08-22T02:58:16.367Z,8.38
2022-08-22T03:03:29.148Z,8.03
2022-08-22T03:08:34.409Z,6.80
2022-08-22T03:13:52.799Z,7.72
2022-08-22T03:19:07.194Z,7.68
2022-08-22T03:24:35.204Z,8.10
2022-08-22T03:29:57.821Z,7.45
2022-08-22T03:35:03.794Z,8.33
2022-08-22T03:40:31.768Z,7.17
2022-08-22T03:45:56.303Z,7.53
2022-08-22T03:51:25.753Z,9.00
2022-08-22T03:56:40.280Z,7.37
2022-08-22T04:02:42.169Z,9.50
2022-08-22T04:07:55.146Z,8.73
2022-08-22T04:13:15.604Z,8.40
2022-08-22T04:18:35.595Z,9.35
2022-08-22T04:23:56.252Z,9.47
2022-08-22T04:29:06.239Z,8.00
2022-08-22T04:34:50.111Z,8.18
2022-08-22T04:40:04.104Z,9.13
2022-08-22T04:45:48.899Z,9.50
2022-08-22T04:51:28.696Z,11.20
2022-08-22T04:57:02.863Z,9.00
2022-08-22T05:02:09.418Z,9.57
2022-08-22T05:07:23.119Z,9.55
2022-08-22T05:12:32.227Z,9.63
2022-08-22T05:17:36.309Z,8.53
2022-08-22T05:22:43.507Z,9.02
2022-08-22T05:27:51.225Z,10.68
2022-08-22T05:33:14.921Z,9.03
2022-08-22T05:38:20.605Z,9.55
2022-08-22T05:43:25.707Z,9.52
2022-08-22T05:48:43.862Z,9.77
2022-08-22T05:53:50.703Z,8.63
2022-08-22T05:59:08.175Z,9.27
2022-08-22T06:04:32.254Z,8.87
2022-08-22T06:09:54.980Z,8.20
2022-08-22T06:15:28.953Z,8.90
2022-08-22T06:20:39.393Z,8.23
2022-08-22T06:25:45.705Z,8.77
2022-08-22T06:30:51.067Z,9.27
2022-08-22T06:36:20.676Z,8.57
2022-08-22T06:41:27.439Z,9.05
2022-08-22T06:46:30.870Z,7.33
2022-08-22T06:51:34.725Z,7.13
2022-08-22T06:56:41.275Z,8.80
2022-08-22T07:01:53.237Z,7.17
2022-08-22T07:06:57.616Z,7.33
2022-08-22T07:12:03.546Z,4.90
2022-08-22T07:17:10.736Z,8.67
2022-08-22T07:22:30.585Z,5.50
2022-08-22T07:27:41.998Z,6.72
2022-08-22T07:32:56.633Z,6.27
2022-08-22T07:38:25.796Z,6.80
2022-08-22T07:44:00.298Z,6.20
2022-08-22T07:49:23.245Z,5.80
2022-08-22T07:54:47.145Z,5.20
2022-08-22T07:59:53.347Z,5.30
2022-08-22T08:04:57.931Z,4.50
2022-08-22T08:10:01.796Z,3.77
2022-08-22T08:15:08.207Z,4.78
2022-08-22T08:20:13.659Z,4.70
2022-08-22T08:25:28.248Z,5.50
2022-08-22T08:30:37.618Z,4.97
2022-08-22T08:36:02.866Z,5.43
2022-08-22T08:41:51.021Z,6.23
2022-08-22T08:47:00.085Z,7.03
2022-08-22T08:52:14.655Z,5.95
2022-08-22T08:57:34.013Z,5.57
2022-08-22T09:02:36.815Z,6.70
2022-08-22T09:08:00.175Z,7.47
2022-08-22T09:13:12.980Z,7.28
2022-08-22T09:18:27.408Z,7.30
2022-08-22T09:24:06.175Z,7.15
2022-08-22T09:29:14.531Z,7.32
2022-08-22T09:34:44.998Z,7.30
2022-08-22T09:40:17.308Z,7.67
2022-08-22T09:45:54.458Z,8.35
2022-08-22T09:51:33.277Z,8.40
2022-08-22T09:56:54.705Z,8.60
2022-08-22T10:02:00.592Z,7.82
2022-08-22T10:07:22.671Z,5.07
2022-08-22T10:12:36.194Z,3.40
2022-08-22T10:17:51.698Z,2.78
2022-08-22T10:23:18.886Z,3.40
2022-08-22T10:28:48.473Z,3.53
2022-08-22T10:34:21.301Z,3.57
2022-08-22T10:39:53.308Z,4.07
2022-08-22T10:45:37.328Z,4.10
2022-08-22T10:51:22.166Z,3.50
2022-08-22T10:56:51.371Z,4.90
2022-08-22T11:02:19.994Z,4.10
2022-08-22T11:07:48.662Z,4.07
2022-08-22T11:13:11.971Z,4.75
2022-08-22T11:18:36.403Z,6.18
2022-08-22T11:23:45.239Z,4.97
2022-08-22T11:29:20.375Z,5.37
2022-08-22T11:34:58.438Z,7.35
2022-08-22T11:40:22.514Z,6.47
2022-08-22T11:45:30.217Z,6.53
2022-08-22T11:50:45.417Z,7.05
2022-08-22T11:56:05.565Z,6.63
2022-08-22T12:01:34.396Z,7.57
2022-08-22T12:06:49.672Z,7.28
2022-08-22T12:12:20.189Z,7.55
2022-08-22T12:17:55.780Z,7.07
2022-08-22T12:23:09.760Z,7.83
2022-08-22T12:28:12.374Z,7.30
2022-08-22T12:33:48.297Z,7.38
2022-08-22T12:39:22.321Z,7.80
2022-08-22T12:44:33.689Z,8.38
2022-08-22T12:49:56.749Z,7.90
2022-08-22T12:55:15.407Z,7.37
2022-08-22T13:00:47.459Z,8.43
2022-08-22T13:05:56.669Z,8.95
2022-08-22T13:11:23.385Z,7.97
2022-08-22T13:16:36.473Z,9.07
2022-08-22T13:21:53.474Z,8.75
2022-08-22T13:27:01.121Z,8.10
2022-08-22T13:32:04.610Z,9.03
2022-08-22T13:37:13.416Z,8.23
2022-08-22T13:42:30.269Z,9.32
2022-08-22T13:47:39.514Z,10.30
2022-08-22T13:52:52.319Z,9.73
2022-08-22T13:58:18.531Z,9.23
2022-08-22T14:03:39.873Z,9.10
2022-08-22T14:08:45.805Z,11.00
2022-08-22T14:13:49.797Z,10.00
2022-08-22T14:18:58.538Z,9.52
2022-08-22T14:24:25.893Z,9.27
2022-08-22T14:29:54.456Z,9.50
2022-08-22T14:35:21.673Z,9.77
2022-08-22T14:40:38.396Z,10.60
2022-08-22T14:45:45.522Z,10.10
2022-08-22T14:51:05.907Z,9.38
2022-08-22T14:56:18.300Z,10.10
2022-08-22T15:01:25.080Z,8.77
2022-08-22T15:06:47.841Z,8.40
2022-08-22T15:11:50.978Z,8.50
2022-08-22T15:16:57.392Z,8.80
2022-08-22T15:22:27.564Z,8.27
2022-08-22T15:27:32.111Z,7.47
2022-08-22T15:32:50.803Z,8.50
2022-08-22T15:38:05.858Z,6.38
2022-08-22T15:43:21.770Z,6.35
2022-08-22T15:48:57.773Z,5.50
2022-08-22T15:54:24.877Z,5.53
2022-08-22T15:59:48.082Z,5.47
2022-08-22T16:05:39.199Z,6.25
2022-08-22T16:11:01.611Z,5.50
2022-08-22T16:16:04.183Z,4.63
2022-08-22T16:21:16.195Z,5.57
2022-08-22T16:26:23.860Z,4.27
2022-08-22T16:31:33.326Z,4.28
2022-08-22T16:36:41.060Z,4.05
2022-08-22T16:41:44.448Z,3.97
2022-08-22T16:46:48.407Z,4.60
2022-08-22T16:52:29.608Z,3.85
2022-08-22T16:58:10.174Z,4.40
2022-08-22T17:04:16.385Z,4.53
2022-08-22T17:09:52.576Z,4.50
2022-08-22T17:15:22.513Z,4.78
2022-08-22T17:20:57.844Z,4.77
2022-08-22T17:26:22.752Z,6.22
2022-08-22T17:32:00.614Z,5.70
2022-08-22T17:37:11.508Z,6.33
2022-08-22T17:42:37.582Z,7.00
2022-08-22T17:48:00.774Z,7.75
2022-08-22T17:53:11.552Z,8.30
2022-08-22T17:58:37.609Z,8.27
2022-08-22T18:03:52.726Z,8.73
2022-08-22T18:09:15.234Z,9.75
2022-08-22T18:14:52.692Z,8.53
2022-08-22T18:20:20.513Z,8.98
2022-08-22T18:25:23.074Z,9.52
2022-08-22T18:30:30.196Z,9.17
2022-08-22T18:35:53.855Z,9.70
2022-08-22T18:41:29.165Z,8.68
2022-08-22T18:46:42.336Z,8.43
2022-08-22T18:51:45.201Z,9.88
2022-08-22T18:57:08.006Z,8.50
2022-08-22T19:02:34.958Z,10.27
2022-08-22T19:08:02.520Z,10.27
2022-08-22T19:13:43.648Z,11.00
2022-08-22T19:19:01.034Z,10.57
2022-08-22T19:24:12.455Z,10.57
2022-08-22T19:29:17.851Z,10.00
2022-08-22T19:34:29.406Z,11.38
2022-08-22T19:39:41.160Z,11.60
2022-08-22T19:44:54.127Z,11.70
2022-08-22T19:50:13.414Z,11.07
2022-08-22T19:55:21.920Z,10.30
2022-08-22T20:00:44.694Z,11.48
2022-08-22T20:06:43.402Z,10.95
2022-08-22T20:11:49.594Z,9.27
2022-08-22T20:17:25.846Z,9.47
2022-08-22T20:22:34.834Z,9.93
2022-08-22T20:27:43.541Z,10.63
2022-08-22T20:32:58.115Z,10.50
2022-08-22T20:38:06.793Z,10.40
2022-08-22T20:43:23.204Z,9.47
2022-08-22T20:48:40.690Z,10.57
2022-08-22T20:53:46.285Z,9.70
2022-08-22T20:58:52.516Z,9.48
2022-08-22T21:03:55.656Z,9.73
2022-08-22T21:09:32.651Z,11.35
2022-08-22T21:14:44.334Z,10.98
2022-08-22T21:19:47.096Z,9.93
2022-08-22T21:24:49.630Z,10.82
2022-08-22T21:29:52.196Z,10.98
2022-08-22T21:34:54.979Z,10.40
2022-08-22T21:40:14.506Z,11.77
2022-08-22T21:45:31.710Z,11.57
2022-08-22T21:50:38.214Z,11.90
2022-08-22T21:55:46.747Z,12.25
2022-08-22T22:01:04.297Z,11.00
2022-08-22T22:06:07.685Z,10.30
2022-08-22T22:11:15.563Z,11.53
2022-08-22T22:16:22.314Z,10.75
2022-08-22T22:21:24.937Z,9.77
2022-08-22T22:26:28.837Z,9.73
2022-08-22T22:31:31.714Z,9.50
2022-08-22T22:36:36.616Z,10.40
2022-08-22T22:41:39.339Z,10.60
2022-08-22T22:46:42.118Z,11.93
2022-08-22T22:51:44.629Z,10.52
2022-08-22T22:56:47.991Z,10.37
2022-08-22T23:02:07.618Z,10.93
2022-08-22T23:07:11.685Z,10.88
2022-08-22T23:12:15.933Z,11.52
2022-08-22T23:17:19.137Z,11.30
2022-08-22T23:22:21.642Z,13.38
2022-08-22T23:27:24.187Z,11.68
2022-08-22T23:32:26.696Z,12.10
2022-08-22T23:37:29.263Z,12.55
2022-08-22T23:42:31.866Z,11.57
2022-08-22T23:47:34.384Z,10.20
2022-08-22T23:52:36.951Z,10.90
2022-08-22T23:57:39.465Z,10.13
